createdAt,value
2018-01-08T00:00:44.225Z,0
2018-01-08T00:01:54.478Z,0
2018-01-08T00:03:04.280Z,0
2018-01-08T00:04:14.349Z,0
2018-01-08T00:05:25.874Z,0
2018-01-08T00:06:35.932Z,0
2018-01-08T00:07:46.029Z,0
2018-01-08T00:08:56.101Z,0
2018-01-08T00:10:05.892Z,0
2018-01-08T00:11:15.690Z,0
2018-01-08T00:12:25.750Z,0
2018-01-08T00:13:35.554Z,0
2018-01-08T00:14:45.597Z,0
2018-01-08T00:15:55.652Z,0
2018-01-08T00:17:05.452Z,0
2018-01-08T00:18:15.251Z,0
2018-01-08T00:19:24.781Z,0
2018-01-08T00:20:34.853Z,0
2018-01-08T00:21:44.913Z,0
2018-01-08T00:22:54.442Z,0
2018-01-08T00:24:04.518Z,0
2018-01-08T00:25:14.566Z,0
2018-01-08T00:26:24.082Z,0
2018-01-08T00:27:33.886Z,0
2018-01-08T00:28:44.010Z,0
2018-01-08T00:29:54.063Z,0
2018-01-08T00:31:04.178Z,0
2018-01-08T00:32:14.235Z,0
2018-01-08T00:33:24.265Z,0
2018-01-08T00:34:34.304Z,0
2018-01-08T00:35:44.103Z,0
2018-01-08T00:36:54.216Z,0
2018-01-08T00:38:03.753Z,0
2018-01-08T00:39:13.832Z,0
2018-01-08T00:40:23.613Z,0
2018-01-08T00:41:33.400Z,0
2018-01-08T00:42:43.461Z,0
2018-01-08T00:43:53.246Z,0
2018-01-08T00:45:03.037Z,0
2018-01-08T00:46:12.827Z,0
2018-01-08T00:47:22.953Z,0
2018-01-08T00:48:33.064Z,0
2018-01-08T00:49:43.107Z,0
2018-01-08T00:50:52.646Z,0
2018-01-08T00:52:02.723Z,0
2018-01-08T00:53:12.804Z,0
2018-01-08T00:54:22.854Z,0
2018-01-08T00:55:32.907Z,0
2018-01-08T00:56:42.716Z,0
2018-01-08T00:57:52.504Z,0
2018-01-08T00:59:02.040Z,0
2018-01-08T01:00:12.167Z,0
2018-01-08T01:01:22.280Z,0
2018-01-08T01:02:32.087Z,0
2018-01-08T01:03:41.875Z,0
2018-01-08T01:04:51.672Z,0
2018-01-08T01:06:01.532Z,0
2018-01-08T01:07:11.307Z,0
2018-01-08T01:08:20.839Z,0
2018-01-08T01:09:30.900Z,0
2018-01-08T01:10:40.701Z,0
2018-01-08T01:11:50.489Z,0
2018-01-08T01:13:00.737Z,0
2018-01-08T01:14:11.386Z,0
2018-01-08T01:15:21.441Z,0
2018-01-08T01:16:31.494Z,0
2018-01-08T01:17:41.554Z,0
2018-01-08T01:18:51.346Z,0
2018-01-08T01:20:01.388Z,0
2018-01-08T01:21:11.457Z,0
2018-01-08T01:22:21.266Z,0
2018-01-08T01:23:31.363Z,0
2018-01-08T01:24:41.155Z,0
2018-01-08T01:25:50.951Z,0
2018-01-08T01:27:01.024Z,0
2018-01-08T01:28:10.828Z,0
2018-01-08T01:29:20.933Z,0
2018-01-08T01:30:30.728Z,0
2018-01-08T01:31:40.776Z,0
2018-01-08T01:32:50.578Z,0
2018-01-08T01:34:00.374Z,0
2018-01-08T01:35:10.472Z,0
2018-01-08T01:36:20.550Z,0
2018-01-08T01:37:30.604Z,0
2018-01-08T01:38:40.749Z,0
2018-01-08T01:39:50.536Z,0
2018-01-08T01:41:00.576Z,0
2018-01-08T01:42:10.383Z,0
2018-01-08T01:43:20.164Z,0
2018-01-08T01:44:30.218Z,0
2018-01-08T01:45:40.267Z,0
2018-01-08T01:46:50.057Z,0
2018-01-08T01:48:00.104Z,0
2018-01-08T01:49:10.160Z,0
2018-01-08T01:50:19.946Z,0
2018-01-08T01:51:29.999Z,0
2018-01-08T01:52:40.096Z,0
2018-01-08T01:53:50.141Z,0
2018-01-08T01:54:59.684Z,0
2018-01-08T01:56:09.493Z,0
2018-01-08T01:57:19.277Z,0
2018-01-08T01:58:29.356Z,0
2018-01-08T01:59:39.144Z,0
2018-01-08T02:00:48.941Z,0
2018-01-08T02:01:58.749Z,0
2018-01-08T02:03:08.808Z,0
2018-01-08T02:04:18.923Z,0
2018-01-08T02:05:28.974Z,0
2018-01-08T02:06:39.086Z,0
2018-01-08T02:07:49.164Z,0
2018-01-08T02:08:58.959Z,0
2018-01-08T02:10:09.083Z,0
2018-01-08T02:11:19.140Z,0
2018-01-08T02:12:28.935Z,0
2018-01-08T02:13:38.727Z,0
2018-01-08T02:14:48.783Z,0
2018-01-08T02:15:58.582Z,0
2018-01-08T02:17:08.627Z,0
2018-01-08T02:18:18.458Z,0
2018-01-08T02:19:27.992Z,0
2018-01-08T02:20:38.044Z,0
2018-01-08T02:21:48.208Z,0
2018-01-08T02:22:58.248Z,0
2018-01-08T02:24:08.304Z,0
2018-01-08T02:25:18.099Z,0
2018-01-08T02:26:28.181Z,0
2018-01-08T02:27:38.248Z,0
2018-01-08T02:28:47.793Z,0
2018-01-08T02:29:57.583Z,0
2018-01-08T02:31:07.659Z,0
2018-01-08T02:32:17.706Z,0
2018-01-08T02:33:27.779Z,0
2018-01-08T02:34:38.008Z,0
2018-01-08T02:35:48.086Z,0
2018-01-08T02:36:57.955Z,0
2018-01-08T02:38:08.018Z,0
2018-01-08T02:39:17.915Z,0
2018-01-08T02:40:27.987Z,0
2018-01-08T02:41:38.040Z,0
2018-01-08T02:42:48.094Z,0
2018-01-08T02:43:58.249Z,0
2018-01-08T02:45:07.803Z,0
2018-01-08T02:46:17.857Z,0
2018-01-08T02:47:28.717Z,0
2018-01-08T02:48:40.071Z,0
2018-01-08T02:49:49.876Z,0
2018-01-08T02:51:00.045Z,0
2018-01-08T02:52:10.105Z,0
2018-01-08T02:53:19.642Z,0
2018-01-08T02:54:29.702Z,0
2018-01-08T02:55:39.792Z,0
2018-01-08T02:56:49.894Z,0
2018-01-08T02:57:59.706Z,0
2018-01-08T02:59:09.769Z,0
2018-01-08T03:00:20.283Z,0
2018-01-08T03:01:30.439Z,0
2018-01-08T03:02:40.513Z,0
2018-01-08T03:34:31.604Z,0
2018-01-08T03:35:41.383Z,0
2018-01-08T03:36:51.503Z,0
2018-01-08T03:38:01.549Z,0
2018-01-08T03:39:11.597Z,0
2018-01-08T03:40:21.693Z,0
2018-01-08T03:41:31.757Z,0
2018-01-08T03:42:41.567Z,0
2018-01-08T03:43:51.627Z,0
2018-01-08T03:45:01.167Z,0
2018-01-08T03:46:11.238Z,0
2018-01-08T03:47:21.288Z,0
2018-01-08T03:48:31.350Z,0
2018-01-08T03:49:41.217Z,0
2018-01-08T03:50:51.278Z,0
2018-01-08T03:52:01.343Z,0
2018-01-08T03:53:11.405Z,0
2018-01-08T03:54:21.459Z,0
2018-01-08T03:55:31.261Z,0
2018-01-08T03:56:41.332Z,0
2018-01-08T03:57:51.166Z,0
2018-01-08T03:59:01.218Z,0
2018-01-08T04:00:11.257Z,0
2018-01-08T04:01:21.064Z,0
2018-01-08T04:02:31.114Z,0
2018-01-08T04:03:41.157Z,0
2018-01-08T04:04:51.015Z,0
2018-01-08T04:06:01.067Z,0
2018-01-08T04:07:11.135Z,0
2018-01-08T04:08:21.176Z,0
2018-01-08T04:09:32.475Z,0
2018-01-08T04:10:42.269Z,0
2018-01-08T04:11:52.329Z,0
2018-01-08T04:13:02.379Z,0
2018-01-08T04:14:12.496Z,0
2018-01-08T04:15:22.605Z,0
2018-01-08T04:16:32.434Z,0
2018-01-08T04:17:42.231Z,0
2018-01-08T04:18:52.687Z,0
2018-01-08T04:20:02.744Z,0
2018-01-08T04:21:12.370Z,0
2018-01-08T04:22:22.422Z,0
2018-01-08T04:23:32.466Z,0
2018-01-08T04:24:42.517Z,0
2018-01-08T04:25:52.354Z,0
2018-01-08T04:27:01.943Z,0
2018-01-08T04:28:12.691Z,0
2018-01-08T04:29:22.844Z,0
2018-01-08T04:30:32.641Z,0
2018-01-08T04:31:42.700Z,0
2018-01-08T04:32:52.559Z,0
2018-01-08T04:34:02.353Z,0
2018-01-08T04:35:12.405Z,0
2018-01-08T04:36:22.452Z,0
2018-01-08T04:37:32.504Z,0
2018-01-08T04:38:42.552Z,0
2018-01-08T04:39:52.612Z,0
2018-01-08T04:41:02.409Z,0
2018-01-08T04:42:12.197Z,0
2018-01-08T04:43:21.998Z,0
2018-01-08T04:44:32.059Z,0
2018-01-08T04:45:42.145Z,0
2018-01-08T04:46:51.944Z,0
2018-01-08T04:48:01.999Z,0
2018-01-08T04:49:11.802Z,0
2018-01-08T04:50:21.918Z,0
2018-01-08T04:51:31.721Z,0
2018-01-08T04:52:41.246Z,0
2018-01-08T04:53:51.024Z,0
2018-01-08T04:55:00.560Z,0
2018-01-08T04:56:10.620Z,0
2018-01-08T04:57:20.419Z,0
2018-01-08T04:58:30.467Z,0
2018-01-08T04:59:40.557Z,0
2018-01-08T05:00:50.411Z,0
2018-01-08T05:02:00.463Z,0
2018-01-08T05:03:10.523Z,0
2018-01-08T05:04:20.572Z,0
2018-01-08T05:05:30.677Z,0
2018-01-08T05:06:40.475Z,0
2018-01-08T05:07:50.263Z,0
2018-01-08T05:09:00.063Z,0
2018-01-08T05:10:10.118Z,0
2018-01-08T05:11:20.174Z,0
2018-01-08T05:12:29.713Z,0
2018-01-08T05:13:39.549Z,0
2018-01-08T05:14:49.604Z,0
2018-01-08T05:15:59.437Z,0
2018-01-08T05:17:09.505Z,0
2018-01-08T05:18:19.557Z,0
2018-01-08T05:19:29.651Z,0
2018-01-08T05:20:39.703Z,0
2018-01-08T05:21:49.240Z,0
2018-01-08T05:22:59.388Z,0
2018-01-08T05:24:09.474Z,0
2018-01-08T05:25:19.571Z,0
2018-01-08T05:26:29.107Z,0
2018-01-08T05:27:39.192Z,0
2018-01-08T05:28:49.252Z,0
2018-01-08T05:29:59.311Z,0
2018-01-08T05:31:09.098Z,0
2018-01-08T05:32:19.139Z,0
2018-01-08T05:33:28.939Z,0
2018-01-08T05:34:38.975Z,0
2018-01-08T05:35:49.041Z,0
2018-01-08T05:36:58.852Z,0
2018-01-08T05:38:08.677Z,0
2018-01-08T05:39:18.727Z,0
2018-01-08T05:40:28.844Z,0
2018-01-08T05:41:38.915Z,0
2018-01-08T05:42:48.719Z,0
2018-01-08T05:43:58.514Z,0
2018-01-08T05:45:08.572Z,0
2018-01-08T05:46:18.634Z,0
2018-01-08T05:47:28.418Z,0
2018-01-08T05:48:38.223Z,0
2018-01-08T05:49:48.019Z,0
2018-01-08T05:50:57.560Z,0
2018-01-08T05:52:07.607Z,0
2018-01-08T05:53:17.708Z,0
2018-01-08T05:54:27.772Z,0
2018-01-08T05:55:37.843Z,0
2018-01-08T05:56:47.902Z,0
2018-01-08T05:57:57.688Z,0
2018-01-08T05:59:07.749Z,0
2018-01-08T06:00:17.832Z,0
2018-01-08T06:01:27.884Z,0
2018-01-08T06:02:37.681Z,0
2018-01-08T06:03:47.744Z,0
2018-01-08T06:04:57.851Z,0
2018-01-08T06:06:07.966Z,0
2018-01-08T06:07:18.022Z,0
2018-01-08T06:08:28.066Z,0
2018-01-08T06:09:39.160Z,0
2018-01-08T06:10:49.274Z,0
2018-01-08T06:11:59.390Z,0
2018-01-08T06:13:09.449Z,0
2018-01-08T06:14:19.230Z,4
2018-01-08T06:15:29.021Z,0
2018-01-08T06:16:38.860Z,0
2018-01-08T06:17:48.455Z,0
2018-01-08T06:18:58.552Z,0
2018-01-08T06:20:07.820Z,0
2018-01-08T06:21:17.899Z,0
2018-01-08T06:22:27.437Z,0
2018-01-08T06:23:37.509Z,4
2018-01-08T06:24:47.567Z,4
2018-01-08T06:25:57.627Z,0
2018-01-08T06:27:07.165Z,0
2018-01-08T06:28:17.055Z,4
2018-01-08T06:29:26.869Z,4
2018-01-08T06:30:36.669Z,4
2018-01-08T06:31:46.715Z,4
2018-01-08T06:32:56.824Z,8
2018-01-08T06:34:06.637Z,4
2018-01-08T06:35:16.683Z,8
2018-01-08T06:36:26.783Z,8
2018-01-08T06:37:36.840Z,8
2018-01-08T06:38:46.882Z,8
2018-01-08T06:39:56.692Z,8
2018-01-08T06:41:06.747Z,12
2018-01-08T06:42:16.788Z,12
2018-01-08T06:43:26.840Z,16
2018-01-08T06:44:36.626Z,16
2018-01-08T06:45:46.430Z,20
2018-01-08T06:46:56.528Z,20
2018-01-08T06:48:06.411Z,20
2018-01-08T06:49:16.194Z,24
2018-01-08T06:50:26.253Z,28
2018-01-08T06:51:36.305Z,36
2018-01-08T06:52:47.315Z,36
2018-01-08T06:53:57.386Z,40
2018-01-08T06:55:06.921Z,40
2018-01-08T06:56:16.974Z,40
2018-01-08T06:57:27.069Z,48
2018-01-08T06:58:37.147Z,48
2018-01-08T06:59:48.309Z,56
2018-01-08T07:00:58.354Z,56
2018-01-08T07:02:07.904Z,64
2018-01-08T07:03:17.694Z,68
2018-01-08T07:04:27.534Z,72
2018-01-08T07:05:37.583Z,80
2018-01-08T07:06:47.614Z,84
2018-01-08T07:07:57.405Z,92
2018-01-08T07:09:07.477Z,92
2018-01-08T07:10:17.334Z,100
2018-01-08T07:11:27.400Z,100
2018-01-08T07:12:37.480Z,104
2018-01-08T07:13:47.271Z,116
2018-01-08T07:14:57.062Z,128
2018-01-08T07:16:07.127Z,140
2018-01-08T07:17:16.923Z,140
2018-01-08T07:18:26.722Z,152
2018-01-08T07:19:36.504Z,160
2018-01-08T07:20:46.309Z,168
2018-01-08T07:21:56.353Z,176
2018-01-08T07:23:05.899Z,192
2018-01-08T07:24:15.699Z,188
2018-01-08T07:25:25.488Z,200
2018-01-08T07:26:35.295Z,216
2018-01-08T07:27:45.359Z,224
2018-01-08T07:28:55.415Z,220
2018-01-08T07:30:05.230Z,228
2018-01-08T07:31:15.025Z,260
2018-01-08T07:32:25.067Z,284
2018-01-08T07:33:35.174Z,280
2018-01-08T07:34:44.968Z,276
2018-01-08T07:35:55.022Z,312
2018-01-08T07:37:05.073Z,324
2018-01-08T07:38:15.117Z,360
2018-01-08T07:39:25.180Z,380
2018-01-08T07:40:35.255Z,372
2018-01-08T07:41:45.370Z,356
2018-01-08T07:42:55.412Z,368
2018-01-08T07:44:05.466Z,368
2018-01-08T07:45:16.641Z,376
2018-01-08T07:46:26.679Z,408
2018-01-08T07:47:36.483Z,428
2018-01-08T07:48:46.268Z,460
2018-01-08T07:49:56.312Z,484
2018-01-08T07:51:05.841Z,496
2018-01-08T07:52:15.907Z,496
2018-01-08T07:53:25.712Z,528
2018-01-08T07:54:35.790Z,544
2018-01-08T07:55:45.862Z,524
2018-01-08T07:56:55.918Z,572
2018-01-08T07:58:05.977Z,624
2018-01-08T07:59:15.773Z,660
2018-01-08T08:00:25.833Z,628
2018-01-08T08:01:35.356Z,580
2018-01-08T08:02:45.134Z,588
2018-01-08T08:03:55.236Z,616
2018-01-08T08:05:05.317Z,612
2018-01-08T08:06:15.370Z,580
2018-01-08T08:07:25.465Z,568
2018-01-08T08:08:35.338Z,604
2018-01-08T08:09:45.402Z,576
2018-01-08T08:10:55.452Z,560
2018-01-08T08:12:05.520Z,576
2018-01-08T08:13:15.694Z,576
2018-01-08T08:14:25.754Z,560
2018-01-08T08:15:35.805Z,576
2018-01-08T08:16:45.866Z,600
2018-01-08T08:17:55.654Z,608
2018-01-08T08:19:05.767Z,596
2018-01-08T08:20:15.839Z,504
2018-01-08T08:21:25.900Z,512
2018-01-08T08:22:36.942Z,488
2018-01-08T08:23:46.489Z,436
2018-01-08T08:24:56.037Z,536
2018-01-08T08:26:06.079Z,608
2018-01-08T08:27:16.149Z,620
2018-01-08T08:28:26.340Z,608
2018-01-08T08:29:36.403Z,604
2018-01-08T08:30:46.496Z,612
2018-01-08T08:31:56.552Z,624
2018-01-08T08:33:06.640Z,612
2018-01-08T08:34:16.440Z,612
2018-01-08T08:35:26.494Z,664
2018-01-08T08:36:36.587Z,716
2018-01-08T08:37:46.644Z,744
2018-01-08T08:38:56.696Z,800
2018-01-08T08:40:06.789Z,876
2018-01-08T08:41:16.849Z,940
2018-01-08T08:42:26.922Z,936
2018-01-08T08:43:36.980Z,932
2018-01-08T08:44:47.036Z,984
2018-01-08T08:45:57.089Z,984
2018-01-08T08:47:06.618Z,972
2018-01-08T08:48:16.405Z,956
2018-01-08T08:49:26.202Z,848
2018-01-08T08:50:36.245Z,688
2018-01-08T08:51:46.019Z,516
2018-01-08T08:52:55.793Z,492
2018-01-08T08:54:05.778Z,568
2018-01-08T08:55:15.897Z,640
2018-01-08T08:56:25.428Z,716
2018-01-08T08:57:35.472Z,728
2018-01-08T08:58:45.531Z,744
2018-01-08T08:59:56.111Z,764
2018-01-08T09:01:05.916Z,764
2018-01-08T09:02:15.998Z,736
2018-01-08T09:03:26.054Z,732
2018-01-08T09:04:35.831Z,744
2018-01-08T09:05:45.627Z,748
2018-01-08T09:06:55.689Z,760
2018-01-08T09:08:05.488Z,796
2018-01-08T09:09:15.602Z,800
2018-01-08T09:10:25.650Z,764
2018-01-08T09:11:35.769Z,736
2018-01-08T09:12:45.835Z,748
2018-01-08T09:13:55.885Z,796
2018-01-08T09:15:06.936Z,780
2018-01-08T09:16:17.015Z,760
2018-01-08T09:17:26.821Z,772
2018-01-08T09:18:36.862Z,780
2018-01-08T09:19:46.938Z,784
2018-01-08T09:20:56.988Z,748
2018-01-08T09:22:07.052Z,712
2018-01-08T09:23:17.103Z,700
2018-01-08T09:24:27.217Z,632
2018-01-08T09:25:37.014Z,644
2018-01-08T09:26:47.078Z,688
2018-01-08T09:27:56.865Z,676
2018-01-08T09:29:06.919Z,652
2018-01-08T09:30:16.510Z,672
2018-01-08T09:31:26.580Z,724
2018-01-08T09:32:36.653Z,656
2018-01-08T09:33:46.712Z,544
2018-01-08T09:34:56.555Z,556
2018-01-08T09:36:06.618Z,664
2018-01-08T09:37:16.674Z,644
2018-01-08T09:38:26.219Z,628
2018-01-08T09:39:36.347Z,676
2018-01-08T09:40:46.119Z,768
2018-01-08T09:41:56.280Z,644
2018-01-08T09:43:07.415Z,804
2018-01-08T09:44:17.494Z,784
2018-01-08T09:45:27.792Z,748
2018-01-08T09:46:37.596Z,704
2018-01-08T09:47:47.718Z,684
2018-01-08T09:48:57.792Z,684
2018-01-08T09:50:07.892Z,680
2018-01-08T09:51:17.481Z,676
2018-01-08T09:52:27.618Z,568
2018-01-08T09:53:37.172Z,652
2018-01-08T09:54:47.242Z,724
2018-01-08T09:55:57.331Z,752
2018-01-08T09:57:07.134Z,812
2018-01-08T09:58:17.282Z,852
2018-01-08T09:59:27.490Z,848
2018-01-08T10:00:38.826Z,732
2018-01-08T10:01:48.921Z,548
2018-01-08T10:02:59.039Z,404
2018-01-08T10:04:08.852Z,324
2018-01-08T10:05:18.940Z,536
2018-01-08T10:06:29.018Z,836
2018-01-08T10:07:38.864Z,816
2018-01-08T10:08:48.729Z,744
2018-01-08T10:09:58.870Z,764
2018-01-08T10:11:09.014Z,816
2018-01-08T10:12:19.149Z,844
2018-01-08T10:13:29.228Z,888
2018-01-08T10:14:39.386Z,920
2018-01-08T10:15:49.346Z,932
2018-01-08T10:16:59.409Z,952
2018-01-08T10:18:10.778Z,948
2018-01-08T10:19:20.584Z,960
2018-01-08T10:20:30.676Z,944
2018-01-08T10:21:40.492Z,952
2018-01-08T10:22:50.565Z,1004
2018-01-08T10:24:00.645Z,1032
2018-01-08T10:25:10.446Z,1004
2018-01-08T10:26:20.532Z,1012
2018-01-08T10:27:30.646Z,1060
2018-01-08T10:28:40.728Z,1068
2018-01-08T10:29:50.594Z,1044
2018-01-08T10:31:00.718Z,1012
2018-01-08T10:32:10.791Z,1040
2018-01-08T10:33:21.990Z,1076
2018-01-08T10:34:32.100Z,1108
2018-01-08T10:35:42.205Z,1116
2018-01-08T10:36:52.275Z,1128
2018-01-08T10:38:02.372Z,1112
2018-01-08T10:39:12.228Z,1068
2018-01-08T10:40:22.314Z,964
2018-01-08T10:41:32.448Z,852
2018-01-08T10:42:42.326Z,808
2018-01-08T10:43:52.432Z,820
2018-01-08T10:45:02.593Z,836
2018-01-08T10:46:12.735Z,880
2018-01-08T10:47:22.971Z,952
2018-01-08T10:48:34.432Z,1004
2018-01-08T10:49:44.525Z,976
2018-01-08T10:50:54.673Z,1028
2018-01-08T10:52:04.764Z,996
2018-01-08T10:53:14.598Z,1012
2018-01-08T10:54:24.140Z,932
2018-01-08T10:55:34.391Z,908
2018-01-08T10:56:44.576Z,944
2018-01-08T10:57:54.740Z,964
2018-01-08T10:59:04.882Z,984
2018-01-08T11:00:16.514Z,1052
2018-01-08T11:01:26.360Z,1100
2018-01-08T11:02:36.516Z,1108
2018-01-08T11:03:46.634Z,1076
2018-01-08T11:04:56.827Z,1080
2018-01-08T11:06:06.919Z,1072
2018-01-08T11:07:16.727Z,1064
2018-01-08T11:08:26.838Z,1112
2018-01-08T11:09:36.899Z,1084
2018-01-08T11:10:46.949Z,1076
2018-01-08T11:11:57.042Z,1016
2018-01-08T11:13:06.852Z,984
2018-01-08T11:14:16.747Z,964
2018-01-08T11:15:26.844Z,900
2018-01-08T11:16:36.910Z,892
2018-01-08T11:17:46.813Z,900
2018-01-08T11:18:56.350Z,940
2018-01-08T11:20:06.464Z,960
2018-01-08T11:21:16.524Z,960
2018-01-08T11:22:26.755Z,960
2018-01-08T11:23:36.827Z,932
2018-01-08T11:24:46.893Z,916
2018-01-08T11:25:56.758Z,872
2018-01-08T11:27:06.853Z,852
2018-01-08T11:28:18.315Z,860
2018-01-08T11:29:28.376Z,864
2018-01-08T11:30:38.477Z,856
2018-01-08T11:31:48.543Z,924
2018-01-08T11:32:58.620Z,960
2018-01-08T11:34:08.695Z,944
2018-01-08T11:35:18.828Z,908
2018-01-08T11:36:28.952Z,944
2018-01-08T11:37:38.813Z,980
2018-01-08T11:38:48.899Z,968
2018-01-08T11:39:59.018Z,1000
2018-01-08T11:41:08.857Z,956
2018-01-08T11:42:19.003Z,896
2018-01-08T11:43:29.121Z,876
2018-01-08T11:44:39.183Z,880
2018-01-08T11:45:49.260Z,932
2018-01-08T11:46:59.335Z,956
2018-01-08T11:48:09.778Z,904
2018-01-08T11:49:19.897Z,872
2018-01-08T11:50:30.024Z,812
2018-01-08T11:51:40.144Z,796
2018-01-08T11:52:50.276Z,756
2018-01-08T11:54:00.407Z,756
2018-01-08T11:55:10.539Z,844
2018-01-08T11:56:20.360Z,872
2018-01-08T11:57:30.445Z,904
2018-01-08T11:58:40.535Z,912
2018-01-08T11:59:50.661Z,896
2018-01-08T12:01:00.792Z,892
2018-01-08T12:02:10.640Z,944
2018-01-08T12:03:20.455Z,920
2018-01-08T12:04:30.544Z,916
2018-01-08T12:05:40.614Z,924
2018-01-08T12:06:50.439Z,880
2018-01-08T12:08:00.652Z,880
2018-01-08T12:09:10.717Z,888
2018-01-08T12:10:20.571Z,876
2018-01-08T12:11:30.636Z,884
2018-01-08T12:12:40.769Z,928
2018-01-08T12:13:50.863Z,916
2018-01-08T12:15:01.010Z,876
2018-01-08T12:16:11.081Z,880
2018-01-08T12:17:21.144Z,832
2018-01-08T12:18:30.972Z,768
2018-01-08T12:19:42.419Z,736
2018-01-08T12:20:52.574Z,724
2018-01-08T12:22:02.443Z,692
2018-01-08T12:23:12.615Z,676
2018-01-08T12:24:22.743Z,640
2018-01-08T12:25:32.902Z,644
2018-01-08T12:26:42.707Z,652
2018-01-08T12:27:52.819Z,676
2018-01-08T12:29:02.933Z,700
2018-01-08T12:30:13.081Z,668
2018-01-08T12:31:23.158Z,668
2018-01-08T12:32:32.982Z,664
2018-01-08T12:33:43.102Z,696
2018-01-08T12:34:53.159Z,680
2018-01-08T12:36:03.307Z,640
2018-01-08T12:37:13.148Z,608
2018-01-08T12:38:23.232Z,620
2018-01-08T12:39:33.314Z,620
2018-01-08T12:40:42.861Z,608
2018-01-08T12:41:52.771Z,572
2018-01-08T12:43:02.652Z,576
2018-01-08T12:44:12.714Z,556
2018-01-08T12:45:22.548Z,504
2018-01-08T12:46:32.618Z,504
2018-01-08T12:47:42.420Z,504
2018-01-08T12:48:52.505Z,496
2018-01-08T12:50:02.665Z,480
2018-01-08T12:51:12.752Z,452
2018-01-08T12:52:23.017Z,460
2018-01-08T12:53:33.150Z,472
2018-01-08T12:54:43.022Z,468
2018-01-08T12:55:53.086Z,508
2018-01-08T12:57:02.897Z,500
2018-01-08T12:58:12.980Z,496
2018-01-08T12:59:23.007Z,532
2018-01-08T13:00:33.096Z,584
2018-01-08T13:01:43.178Z,600
2018-01-08T13:02:52.988Z,588
2018-01-08T13:04:02.841Z,580
2018-01-08T13:05:12.972Z,568
2018-01-08T13:06:23.044Z,600
2018-01-08T13:07:33.160Z,596
2018-01-08T13:08:42.970Z,616
2018-01-08T13:09:52.760Z,640
2018-01-08T13:11:02.642Z,664
2018-01-08T13:12:12.567Z,652
2018-01-08T13:13:22.640Z,608
2018-01-08T13:14:32.723Z,572
2018-01-08T13:15:42.811Z,564
2018-01-08T13:16:52.369Z,532
2018-01-08T13:18:02.185Z,552
2018-01-08T13:19:12.289Z,524
2018-01-08T13:20:22.359Z,512
2018-01-08T13:21:32.448Z,524
2018-01-08T13:22:43.381Z,540
2018-01-08T13:23:53.274Z,560
2018-01-08T13:25:03.403Z,540
2018-01-08T13:26:13.272Z,508
2018-01-08T13:27:23.385Z,548
2018-01-08T13:28:33.510Z,528
2018-01-08T13:29:43.603Z,480
2018-01-08T13:30:53.677Z,488
2018-01-08T13:32:03.797Z,488
2018-01-08T13:33:14.465Z,524
2018-01-08T13:34:24.849Z,520
2018-01-08T13:35:34.987Z,512
2018-01-08T13:36:45.107Z,480
2018-01-08T13:37:55.209Z,428
2018-01-08T13:39:05.631Z,416
2018-01-08T13:40:15.702Z,416
2018-01-08T13:41:25.540Z,420
2018-01-08T13:42:35.644Z,400
2018-01-08T13:43:45.459Z,392
2018-01-08T13:44:55.548Z,380
2018-01-08T13:46:05.371Z,364
2018-01-08T13:47:15.444Z,348
2018-01-08T13:48:25.532Z,352
2018-01-08T13:49:35.403Z,352
2018-01-08T13:50:45.217Z,360
2018-01-08T13:51:55.313Z,336
2018-01-08T13:53:05.480Z,320
2018-01-08T13:54:15.305Z,324
2018-01-08T13:55:25.388Z,340
2018-01-08T13:56:35.496Z,320
2018-01-08T13:57:45.662Z,348
2018-01-08T13:58:55.510Z,328
2018-01-08T14:00:05.619Z,304
2018-01-08T14:01:15.724Z,304
2018-01-08T14:02:25.584Z,300
2018-01-08T14:03:35.391Z,304
2018-01-08T14:04:45.528Z,304
2018-01-08T14:05:55.344Z,292
2018-01-08T14:07:05.437Z,288
2018-01-08T14:08:15.546Z,300
2018-01-08T14:09:25.602Z,292
2018-01-08T14:10:35.742Z,300
2018-01-08T14:11:45.588Z,284
2018-01-08T14:12:55.766Z,272
2018-01-08T14:14:05.891Z,252
2018-01-08T14:15:16.001Z,236
2018-01-08T14:16:25.857Z,208
2018-01-08T14:17:35.832Z,204
2018-01-08T14:18:45.497Z,188
2018-01-08T14:19:55.582Z,184
2018-01-08T14:21:05.718Z,188
2018-01-08T14:22:16.030Z,176
2018-01-08T14:23:25.853Z,176
2018-01-08T14:24:35.983Z,168
2018-01-08T14:25:46.149Z,164
2018-01-08T14:26:56.256Z,160
2018-01-08T14:28:06.360Z,148
2018-01-08T14:29:17.523Z,148
2018-01-08T14:30:27.982Z,144
2018-01-08T14:31:38.078Z,144
2018-01-08T14:32:47.929Z,148
2018-01-08T14:33:58.046Z,140
2018-01-08T14:35:08.142Z,128
2018-01-08T14:36:18.322Z,124
2018-01-08T14:37:28.629Z,112
2018-01-08T14:38:38.504Z,112
2018-01-08T14:39:48.463Z,100
2018-01-08T14:40:58.557Z,104
2018-01-08T14:42:08.646Z,100
2018-01-08T14:43:18.776Z,92
2018-01-08T14:44:28.898Z,88
2018-01-08T14:45:39.076Z,88
2018-01-08T14:46:49.165Z,76
2018-01-08T14:47:59.300Z,72
2018-01-08T14:49:09.390Z,64
2018-01-08T14:50:19.209Z,60
2018-01-08T14:51:29.027Z,60
2018-01-08T14:52:39.118Z,52
2018-01-08T14:53:48.963Z,48
2018-01-08T14:54:59.090Z,44
2018-01-08T14:56:08.928Z,40
2018-01-08T14:57:19.040Z,44
2018-01-08T14:58:29.111Z,40
2018-01-08T14:59:39.298Z,40
2018-01-08T15:00:49.408Z,40
2018-01-08T15:01:59.484Z,36
2018-01-08T15:03:09.609Z,36
2018-01-08T15:04:19.694Z,36
2018-01-08T15:05:29.820Z,36
2018-01-08T15:06:39.676Z,32
2018-01-08T15:07:49.595Z,32
2018-01-08T15:08:59.737Z,32
2018-01-08T15:10:09.845Z,32
2018-01-08T15:11:19.931Z,32
2018-01-08T15:12:31.502Z,28
2018-01-08T15:13:41.732Z,28
2018-01-08T15:14:51.873Z,24
2018-01-08T15:16:03.594Z,20
2018-01-08T15:17:13.744Z,20
2018-01-08T15:18:23.994Z,20
2018-01-08T15:19:33.807Z,20
2018-01-08T15:20:43.620Z,16
2018-01-08T15:21:53.716Z,12
2018-01-08T15:23:03.798Z,12
2018-01-08T15:24:15.324Z,12
2018-01-08T15:25:25.535Z,8
2018-01-08T15:26:35.394Z,8
2018-01-08T15:27:45.552Z,4
2018-01-08T15:28:55.663Z,8
2018-01-08T15:30:05.613Z,4
2018-01-08T15:31:15.753Z,4
2018-01-08T15:32:25.889Z,4
2018-01-08T15:33:36.005Z,4
2018-01-08T15:34:46.996Z,4
2018-01-08T15:35:57.076Z,0
2018-01-08T15:37:07.174Z,0
2018-01-08T15:38:17.759Z,0
2018-01-08T15:39:27.892Z,4
2018-01-08T15:40:38.118Z,4
2018-01-08T15:41:48.215Z,0
2018-01-08T15:42:58.528Z,0
2018-01-08T15:44:08.342Z,0
2018-01-08T15:45:19.497Z,0
2018-01-08T15:46:29.325Z,0
2018-01-08T15:47:39.405Z,0
2018-01-08T15:48:48.719Z,0
2018-01-08T15:49:58.882Z,0
2018-01-08T15:51:09.959Z,0
2018-01-08T15:52:19.776Z,0
2018-01-08T15:53:29.868Z,0
2018-01-08T15:54:40.038Z,0
2018-01-08T15:55:50.014Z,0
2018-01-08T15:57:00.119Z,0
2018-01-08T15:58:09.946Z,0
2018-01-08T15:59:19.565Z,0
2018-01-08T16:00:29.670Z,0
2018-01-08T16:01:41.425Z,0
2018-01-08T16:02:51.817Z,0
2018-01-08T16:04:01.981Z,0
2018-01-08T16:05:12.517Z,0
2018-01-08T16:06:22.079Z,0
2018-01-08T16:07:32.111Z,0
2018-01-08T16:08:41.996Z,0
2018-01-08T16:09:53.084Z,0
2018-01-08T16:11:03.214Z,0
2018-01-08T16:12:13.515Z,0
2018-01-08T16:13:23.363Z,0
2018-01-08T16:14:34.610Z,0
2018-01-08T16:15:44.769Z,0
2018-01-08T16:16:54.884Z,0
2018-01-08T16:18:04.984Z,0
2018-01-08T16:19:15.127Z,0
2018-01-08T16:20:25.080Z,0
2018-01-08T16:21:34.915Z,0
2018-01-08T16:22:44.962Z,0
2018-01-08T16:23:55.088Z,0
2018-01-08T16:25:05.211Z,0
2018-01-08T16:26:15.295Z,0
2018-01-08T16:27:27.350Z,0
2018-01-08T16:28:38.858Z,0
2018-01-08T16:29:48.971Z,0
2018-01-08T16:30:59.055Z,0
2018-01-08T16:32:09.158Z,0
2018-01-08T16:33:19.493Z,0
2018-01-08T16:34:29.586Z,0
2018-01-08T16:35:39.673Z,0
2018-01-08T16:36:51.449Z,0
2018-01-08T16:38:02.275Z,0
2018-01-08T16:39:12.362Z,0
2018-01-08T16:40:24.065Z,0
2018-01-08T16:41:34.415Z,0
2018-01-08T16:42:44.561Z,0
2018-01-08T16:43:54.396Z,0
2018-01-08T16:45:04.495Z,0
2018-01-08T16:46:14.576Z,0
2018-01-08T16:47:24.415Z,0
2018-01-08T16:48:34.566Z,0
2018-01-08T16:49:44.643Z,0
2018-01-08T16:50:54.723Z,0
2018-01-08T16:52:04.858Z,0
2018-01-08T16:53:16.334Z,0
2018-01-08T16:54:26.298Z,0
2018-01-08T16:55:36.137Z,0
2018-01-08T16:56:46.207Z,0
2018-01-08T16:57:56.035Z,0
2018-01-08T16:59:05.864Z,0
2018-01-08T17:00:15.777Z,0
2018-01-08T17:01:25.868Z,0
2018-01-08T17:02:36.474Z,0
2018-01-08T17:03:46.818Z,0
2018-01-08T17:04:58.208Z,0
2018-01-08T17:06:08.302Z,0
2018-01-08T17:07:18.383Z,0
2018-01-08T17:08:29.588Z,0
2018-01-08T17:09:39.677Z,0